sensor_id;sensor_type;location;lat;lon;timestamp;P1;durP1;ratioP1;P2;durP2;ratioP2
48823;SDS011;34640;53.590;10.054;2024-01-15T00:02:04;11.55;;;1.27;;
48823;SDS011;34640;53.590;10.054;2024-01-15T00:04:37;13.80;;;1.48;;
48823;SDS011;34640;53.590;10.054;2024-01-15T00:07:10;11.65;;;1.20;;
48823;SDS011;34640;53.590;10.054;2024-01-15T00:09:43;14.27;;;1.50;;
48823;SDS011;34640;53.590;10.054;2024-01-15T00:12:16;12.82;;;1.40;;
48823;SDS011;34640;53.590;10.054;2024-01-15T00:14:50;9.25;;;1.33;;
48823;SDS011;34640;53.590;10.054;2024-01-15T00:17:24;12.93;;;1.08;;
48823;SDS011;34640;53.590;10.054;2024-01-15T00:19:57;10.60;;;1.52;;
48823;SDS011;34640;53.590;10.054;2024-01-15T00:22:30;16.42;;;1.20;;
48823;SDS011;34640;53.590;10.054;2024-01-15T00:25:04;7.80;;;0.98;;
48823;SDS011;34640;53.590;10.054;2024-01-15T00:27:38;14.48;;;1.77;;
48823;SDS011;34640;53.590;10.054;2024-01-15T00:30:11;11.40;;;1.70;;
48823;SDS011;34640;53.590;10.054;2024-01-15T00:32:46;12.40;;;1.45;;
48823;SDS011;34640;53.590;10.054;2024-01-15T00:35:19;6.57;;;1.40;;
48823;SDS011;34640;53.590;10.054;2024-01-15T00:37:52;8.80;;;1.20;;
48823;SDS011;34640;53.590;10.054;2024-01-15T00:40:25;19.70;;;1.60;;
48823;SDS011;34640;53.590;10.054;2024-01-15T00:42:58;11.45;;;1.40;;
48823;SDS011;34640;53.590;10.054;2024-01-15T00:45:31;20.02;;;2.20;;
48823;SDS011;34640;53.590;10.054;2024-01-15T00:48:06;9.85;;;1.60;;
48823;SDS011;34640;53.590;10.054;2024-01-15T00:50:39;22.42;;;2.33;;
48823;SDS011;34640;53.590;10.054;2024-01-15T00:53:12;10.30;;;1.02;;
48823;SDS011;34640;53.590;10.054;2024-01-15T00:55:45;13.38;;;1.92;;
48823;SDS011;34640;53.590;10.054;2024-01-15T00:58:18;15.18;;;1.77;;
48823;SDS011;34640;53.590;10.054;2024-01-15T01:00:52;18.17;;;1.83;;
48823;SDS011;34640;53.590;10.054;2024-01-15T01:03:27;14.88;;;1.70;;
48823;SDS011;34640;53.590;10.054;2024-01-15T01:06:00;13.43;;;2.00;;
48823;SDS011;34640;53.590;10.054;2024-01-15T01:08:33;12.63;;;1.48;;
48823;SDS011;34640;53.590;10.054;2024-01-15T01:11:06;9.98;;;1.40;;
48823;SDS011;34640;53.590;10.054;2024-01-15T01:13:40;13.30;;;1.55;;
48823;SDS011;34640;53.590;10.054;2024-01-15T01:16:15;14.02;;;1.73;;
48823;SDS011;34640;53.590;10.054;2024-01-15T01:18:49;17.70;;;2.72;;
48823;SDS011;34640;53.590;10.054;2024-01-15T01:21:24;20.67;;;2.20;;
48823;SDS011;34640;53.590;10.054;2024-01-15T01:23:57;16.25;;;2.28;;
48823;SDS011;34640;53.590;10.054;2024-01-15T01:26:30;10.82;;;1.70;;
48823;SDS011;34640;53.590;10.054;2024-01-15T01:29:03;15.05;;;1.02;;
48823;SDS011;34640;53.590;10.054;2024-01-15T01:31:36;16.50;;;1.42;;
48823;SDS011;34640;53.590;10.054;2024-01-15T01:34:10;17.40;;;1.42;;
48823;SDS011;34640;53.590;10.054;2024-01-15T01:36:43;10.85;;;1.65;;
48823;SDS011;34640;53.590;10.054;2024-01-15T01:39:16;14.15;;;1.58;;
48823;SDS011;34640;53.590;10.054;2024-01-15T01:41:49;15.20;;;2.55;;
48823;SDS011;34640;53.590;10.054;2024-01-15T01:44:23;20.17;;;1.77;;
48823;SDS011;34640;53.590;10.054;2024-01-15T01:46:56;9.10;;;1.48;;
48823;SDS011;34640;53.590;10.054;2024-01-15T01:49:31;15.00;;;1.42;;
48823;SDS011;34640;53.590;10.054;2024-01-15T01:52:09;13.52;;;1.40;;
48823;SDS011;34640;53.590;10.054;2024-01-15T01:54:43;8.13;;;0.90;;
48823;SDS011;34640;53.590;10.054;2024-01-15T01:57:16;14.50;;;1.27;;
48823;SDS011;34640;53.590;10.054;2024-01-15T01:59:50;11.90;;;1.35;;
48823;SDS011;34640;53.590;10.054;2024-01-15T02:02:26;13.60;;;1.52;;
48823;SDS011;34640;53.590;10.054;2024-01-15T02:05:00;14.90;;;2.03;;
48823;SDS011;34640;53.590;10.054;2024-01-15T02:07:34;9.68;;;1.83;;
48823;SDS011;34640;53.590;10.054;2024-01-15T02:10:08;10.55;;;1.58;;
48823;SDS011;34640;53.590;10.054;2024-01-15T02:12:42;8.60;;;1.50;;
48823;SDS011;34640;53.590;10.054;2024-01-15T02:15:15;12.18;;;1.42;;
48823;SDS011;34640;53.590;10.054;2024-01-15T02:17:58;10.15;;;0.95;;
48823;SDS011;34640;53.590;10.054;2024-01-15T02:20:34;11.30;;;1.88;;
48823;SDS011;34640;53.590;10.054;2024-01-15T02:23:09;6.63;;;1.05;;
48823;SDS011;34640;53.590;10.054;2024-01-15T02:25:44;8.43;;;1.40;;
48823;SDS011;34640;53.590;10.054;2024-01-15T02:28:19;10.82;;;1.50;;
48823;SDS011;34640;53.590;10.054;2024-01-15T02:30:52;13.18;;;1.77;;
48823;SDS011;34640;53.590;10.054;2024-01-15T02:33:25;15.98;;;2.80;;
48823;SDS011;34640;53.590;10.054;2024-01-15T02:35:59;13.57;;;2.03;;
48823;SDS011;34640;53.590;10.054;2024-01-15T02:38:33;15.75;;;1.77;;
48823;SDS011;34640;53.590;10.054;2024-01-15T02:41:06;7.55;;;1.85;;
48823;SDS011;34640;53.590;10.054;2024-01-15T02:43:39;13.23;;;1.73;;
48823;SDS011;34640;53.590;10.054;2024-01-15T02:46:12;11.48;;;2.90;;
48823;SDS011;34640;53.590;10.054;2024-01-15T02:48:45;11.52;;;2.00;;
48823;SDS011;34640;53.590;10.054;2024-01-15T02:51:18;15.40;;;3.72;;
48823;SDS011;34640;53.590;10.054;2024-01-15T02:53:53;12.80;;;2.58;;
48823;SDS011;34640;53.590;10.054;2024-01-15T02:56:26;8.85;;;1.15;;
48823;SDS011;34640;53.590;10.054;2024-01-15T02:58:59;12.35;;;2.70;;
48823;SDS011;34640;53.590;10.054;2024-01-15T03:01:32;18.25;;;2.05;;
48823;SDS011;34640;53.590;10.054;2024-01-15T03:04:05;17.15;;;3.90;;
48823;SDS011;34640;53.590;10.054;2024-01-15T03:06:38;12.15;;;1.70;;
48823;SDS011;34640;53.590;10.054;2024-01-15T03:09:12;15.38;;;2.30;;
48823;SDS011;34640;53.590;10.054;2024-01-15T03:11:45;13.05;;;1.60;;
48823;SDS011;34640;53.590;10.054;2024-01-15T03:14:18;15.70;;;2.15;;
48823;SDS011;34640;53.590;10.054;2024-01-15T03:16:55;12.88;;;1.77;;
48823;SDS011;34640;53.590;10.054;2024-01-15T03:19:28;10.80;;;1.85;;
48823;SDS011;34640;53.590;10.054;2024-01-15T03:22:02;11.52;;;1.55;;
48823;SDS011;34640;53.590;10.054;2024-01-15T03:24:36;19.08;;;2.40;;
48823;SDS011;34640;53.590;10.054;2024-01-15T03:27:09;19.05;;;2.55;;
48823;SDS011;34640;53.590;10.054;2024-01-15T03:29:42;13.82;;;1.70;;
48823;SDS011;34640;53.590;10.054;2024-01-15T03:32:16;12.07;;;1.35;;
48823;SDS011;34640;53.590;10.054;2024-01-15T03:34:50;15.23;;;1.77;;
48823;SDS011;34640;53.590;10.054;2024-01-15T03:37:24;16.10;;;1.40;;
48823;SDS011;34640;53.590;10.054;2024-01-15T03:39:58;16.67;;;1.85;;
48823;SDS011;34640;53.590;10.054;2024-01-15T03:42:31;15.57;;;1.60;;
48823;SDS011;34640;53.590;10.054;2024-01-15T03:45:05;13.35;;;2.00;;
48823;SDS011;34640;53.590;10.054;2024-01-15T03:47:38;14.18;;;1.58;;
48823;SDS011;34640;53.590;10.054;2024-01-15T03:50:11;16.80;;;1.60;;
48823;SDS011;34640;53.590;10.054;2024-01-15T03:52:44;13.82;;;1.50;;
48823;SDS011;34640;53.590;10.054;2024-01-15T03:55:19;12.90;;;1.60;;
48823;SDS011;34640;53.590;10.054;2024-01-15T03:57:52;10.82;;;2.15;;
48823;SDS011;34640;53.590;10.054;2024-01-15T04:00:25;12.35;;;2.00;;
48823;SDS011;34640;53.590;10.054;2024-01-15T04:02:58;15.43;;;1.80;;
48823;SDS011;34640;53.590;10.054;2024-01-15T04:05:31;22.83;;;2.03;;
48823;SDS011;34640;53.590;10.054;2024-01-15T04:08:04;17.23;;;1.90;;
48823;SDS011;34640;53.590;10.054;2024-01-15T04:10:39;20.55;;;2.45;;
48823;SDS011;34640;53.590;10.054;2024-01-15T04:13:12;21.08;;;2.13;;
48823;SDS011;34640;53.590;10.054;2024-01-15T04:15:44;17.80;;;1.85;;
48823;SDS011;34640;53.590;10.054;2024-01-15T04:18:18;28.13;;;2.65;;
48823;SDS011;34640;53.590;10.054;2024-01-15T04:20:51;28.05;;;2.75;;
48823;SDS011;34640;53.590;10.054;2024-01-15T04:23:23;14.02;;;1.80;;
48823;SDS011;34640;53.590;10.054;2024-01-15T04:25:58;19.15;;;1.38;;
48823;SDS011;34640;53.590;10.054;2024-01-15T04:28:31;23.92;;;2.17;;
48823;SDS011;34640;53.590;10.054;2024-01-15T04:31:03;16.88;;;1.35;;
48823;SDS011;34640;53.590;10.054;2024-01-15T04:33:36;14.25;;;1.42;;
48823;SDS011;34640;53.590;10.054;2024-01-15T04:36:10;14.88;;;1.60;;
48823;SDS011;34640;53.590;10.054;2024-01-15T04:38:43;17.73;;;1.83;;
48823;SDS011;34640;53.590;10.054;2024-01-15T04:41:17;16.55;;;1.88;;
48823;SDS011;34640;53.590;10.054;2024-01-15T04:43:51;16.17;;;1.63;;
48823;SDS011;34640;53.590;10.054;2024-01-15T04:46:24;26.58;;;3.05;;
48823;SDS011;34640;53.590;10.054;2024-01-15T04:48:57;18.92;;;2.22;;
48823;SDS011;34640;53.590;10.054;2024-01-15T04:51:30;20.55;;;1.95;;
48823;SDS011;34640;53.590;10.054;2024-01-15T04:54:05;22.15;;;2.10;;
48823;SDS011;34640;53.590;10.054;2024-01-15T04:56:40;16.27;;;1.95;;
48823;SDS011;34640;53.590;10.054;2024-01-15T04:59:13;21.98;;;1.92;;
48823;SDS011;34640;53.590;10.054;2024-01-15T05:01:46;18.38;;;2.20;;
48823;SDS011;34640;53.590;10.054;2024-01-15T05:04:20;20.33;;;2.15;;
48823;SDS011;34640;53.590;10.054;2024-01-15T05:06:53;22.52;;;2.47;;
48823;SDS011;34640;53.590;10.054;2024-01-15T05:09:26;25.30;;;3.15;;
48823;SDS011;34640;53.590;10.054;2024-01-15T05:12:05;22.63;;;2.60;;
48823;SDS011;34640;53.590;10.054;2024-01-15T05:14:38;25.48;;;2.17;;
48823;SDS011;34640;53.590;10.054;2024-01-15T05:17:11;18.10;;;1.73;;
48823;SDS011;34640;53.590;10.054;2024-01-15T05:19:44;24.48;;;2.65;;
48823;SDS011;34640;53.590;10.054;2024-01-15T05:22:17;36.72;;;2.90;;
48823;SDS011;34640;53.590;10.054;2024-01-15T05:24:50;23.83;;;2.80;;
48823;SDS011;34640;53.590;10.054;2024-01-15T05:27:24;36.83;;;5.97;;
48823;SDS011;34640;53.590;10.054;2024-01-15T05:29:58;21.17;;;2.38;;
48823;SDS011;34640;53.590;10.054;2024-01-15T05:32:31;25.77;;;2.40;;
48823;SDS011;34640;53.590;10.054;2024-01-15T05:35:05;18.17;;;2.17;;
48823;SDS011;34640;53.590;10.054;2024-01-15T05:37:41;23.40;;;2.83;;
48823;SDS011;34640;53.590;10.054;2024-01-15T05:40:16;29.95;;;2.55;;
48823;SDS011;34640;53.590;10.054;2024-01-15T05:42:50;18.70;;;2.35;;
48823;SDS011;34640;53.590;10.054;2024-01-15T05:45:25;25.35;;;2.70;;
48823;SDS011;34640;53.590;10.054;2024-01-15T05:47:58;22.85;;;2.55;;
48823;SDS011;34640;53.590;10.054;2024-01-15T05:50:31;27.13;;;2.45;;
48823;SDS011;34640;53.590;10.054;2024-01-15T05:53:04;22.92;;;3.35;;
48823;SDS011;34640;53.590;10.054;2024-01-15T05:55:40;22.15;;;2.95;;
48823;SDS011;34640;53.590;10.054;2024-01-15T05:58:14;16.63;;;1.83;;
48823;SDS011;34640;53.590;10.054;2024-01-15T06:00:47;18.50;;;1.65;;
48823;SDS011;34640;53.590;10.054;2024-01-15T06:03:21;14.02;;;1.92;;
48823;SDS011;34640;53.590;10.054;2024-01-15T06:05:54;21.65;;;2.40;;
48823;SDS011;34640;53.590;10.054;2024-01-15T06:08:27;14.38;;;2.00;;
48823;SDS011;34640;53.590;10.054;2024-01-15T06:11:00;24.40;;;3.33;;
48823;SDS011;34640;53.590;10.054;2024-01-15T06:13:35;15.07;;;2.50;;
48823;SDS011;34640;53.590;10.054;2024-01-15T06:16:12;17.17;;;2.58;;
48823;SDS011;34640;53.590;10.054;2024-01-15T06:18:48;14.68;;;2.15;;
48823;SDS011;34640;53.590;10.054;2024-01-15T06:21:21;17.08;;;2.30;;
48823;SDS011;34640;53.590;10.054;2024-01-15T06:23:54;15.18;;;2.00;;
48823;SDS011;34640;53.590;10.054;2024-01-15T06:26:27;16.63;;;2.28;;
48823;SDS011;34640;53.590;10.054;2024-01-15T06:29:02;20.45;;;2.50;;
48823;SDS011;34640;53.590;10.054;2024-01-15T06:31:35;24.17;;;4.93;;
48823;SDS011;34640;53.590;10.054;2024-01-15T06:34:08;16.15;;;1.83;;
48823;SDS011;34640;53.590;10.054;2024-01-15T06:36:41;25.25;;;3.08;;
48823;SDS011;34640;53.590;10.054;2024-01-15T06:39:15;20.50;;;2.00;;
48823;SDS011;34640;53.590;10.054;2024-01-15T06:41:48;35.42;;;3.47;;
48823;SDS011;34640;53.590;10.054;2024-01-15T06:44:22;17.60;;;2.80;;
48823;SDS011;34640;53.590;10.054;2024-01-15T06:46:56;16.95;;;2.22;;
48823;SDS011;34640;53.590;10.054;2024-01-15T06:49:33;21.30;;;3.37;;
48823;SDS011;34640;53.590;10.054;2024-01-15T06:52:06;22.30;;;3.10;;
48823;SDS011;34640;53.590;10.054;2024-01-15T06:54:39;27.17;;;2.63;;
48823;SDS011;34640;53.590;10.054;2024-01-15T06:57:12;20.95;;;2.28;;
48823;SDS011;34640;53.590;10.054;2024-01-15T06:59:47;20.83;;;2.13;;
48823;SDS011;34640;53.590;10.054;2024-01-15T07:02:19;13.63;;;2.60;;
48823;SDS011;34640;53.590;10.054;2024-01-15T07:04:52;25.65;;;2.92;;
48823;SDS011;34640;53.590;10.054;2024-01-15T07:07:25;21.23;;;2.20;;
48823;SDS011;34640;53.590;10.054;2024-01-15T07:10:01;24.48;;;2.75;;
48823;SDS011;34640;53.590;10.054;2024-01-15T07:12:35;18.42;;;1.83;;
48823;SDS011;34640;53.590;10.054;2024-01-15T07:15:09;12.70;;;2.53;;
48823;SDS011;34640;53.590;10.054;2024-01-15T07:17:42;16.40;;;2.20;;
48823;SDS011;34640;53.590;10.054;2024-01-15T07:20:15;17.15;;;2.28;;
48823;SDS011;34640;53.590;10.054;2024-01-15T07:22:50;21.52;;;2.50;;
48823;SDS011;34640;53.590;10.054;2024-01-15T07:25:24;18.00;;;2.17;;
48823;SDS011;34640;53.590;10.054;2024-01-15T07:27:57;14.50;;;2.33;;
48823;SDS011;34640;53.590;10.054;2024-01-15T07:30:32;13.18;;;1.38;;
48823;SDS011;34640;53.590;10.054;2024-01-15T07:33:05;13.35;;;1.88;;
48823;SDS011;34640;53.590;10.054;2024-01-15T07:35:38;14.02;;;1.33;;
48823;SDS011;34640;53.590;10.054;2024-01-15T07:38:11;15.50;;;2.03;;
48823;SDS011;34640;53.590;10.054;2024-01-15T07:40:44;8.30;;;1.05;;
48823;SDS011;34640;53.590;10.054;2024-01-15T07:43:20;13.07;;;2.08;;
48823;SDS011;34640;53.590;10.054;2024-01-15T07:45:55;11.65;;;1.65;;
48823;SDS011;34640;53.590;10.054;2024-01-15T07:48:29;16.05;;;1.77;;
48823;SDS011;34640;53.590;10.054;2024-01-15T07:51:02;13.63;;;1.25;;
48823;SDS011;34640;53.590;10.054;2024-01-15T07:53:35;15.75;;;1.83;;
48823;SDS011;34640;53.590;10.054;2024-01-15T07:56:08;8.27;;;1.00;;
48823;SDS011;34640;53.590;10.054;2024-01-15T07:58:44;9.98;;;1.80;;
48823;SDS011;34640;53.590;10.054;2024-01-15T08:01:18;14.18;;;1.45;;
48823;SDS011;34640;53.590;10.054;2024-01-15T08:03:52;11.45;;;1.48;;
48823;SDS011;34640;53.590;10.054;2024-01-15T08:06:26;10.25;;;0.93;;
48823;SDS011;34640;53.590;10.054;2024-01-15T08:09:00;11.40;;;1.48;;
48823;SDS011;34640;53.590;10.054;2024-01-15T08:11:34;11.68;;;1.30;;
48823;SDS011;34640;53.590;10.054;2024-01-15T08:14:07;9.25;;;2.13;;
48823;SDS011;34640;53.590;10.054;2024-01-15T08:16:42;10.43;;;1.38;;
48823;SDS011;34640;53.590;10.054;2024-01-15T08:19:15;8.77;;;1.40;;
48823;SDS011;34640;53.590;10.054;2024-01-15T08:21:48;12.07;;;1.30;;
48823;SDS011;34640;53.590;10.054;2024-01-15T08:24:21;16.92;;;1.45;;
48823;SDS011;34640;53.590;10.054;2024-01-15T08:26:55;10.00;;;1.77;;
48823;SDS011;34640;53.590;10.054;2024-01-15T08:29:28;9.32;;;1.05;;
48823;SDS011;34640;53.590;10.054;2024-01-15T08:32:05;8.68;;;1.38;;
48823;SDS011;34640;53.590;10.054;2024-01-15T08:34:38;9.15;;;1.90;;
48823;SDS011;34640;53.590;10.054;2024-01-15T08:37:11;8.85;;;1.23;;
48823;SDS011;34640;53.590;10.054;2024-01-15T08:39:46;15.57;;;2.15;;
48823;SDS011;34640;53.590;10.054;2024-01-15T08:42:22;17.55;;;1.65;;
48823;SDS011;34640;53.590;10.054;2024-01-15T08:44:56;9.90;;;1.70;;
48823;SDS011;34640;53.590;10.054;2024-01-15T08:47:30;12.43;;;1.70;;
48823;SDS011;34640;53.590;10.054;2024-01-15T08:50:03;21.55;;;1.67;;
48823;SDS011;34640;53.590;10.054;2024-01-15T08:52:37;16.00;;;1.30;;
48823;SDS011;34640;53.590;10.054;2024-01-15T08:55:10;10.82;;;1.45;;
48823;SDS011;34640;53.590;10.054;2024-01-15T08:57:44;9.75;;;1.23;;
48823;SDS011;34640;53.590;10.054;2024-01-15T09:00:18;12.57;;;3.17;;
48823;SDS011;34640;53.590;10.054;2024-01-15T09:02:54;9.68;;;1.95;;
48823;SDS011;34640;53.590;10.054;2024-01-15T09:05:28;10.40;;;1.70;;
48823;SDS011;34640;53.590;10.054;2024-01-15T09:08:01;13.55;;;1.80;;
48823;SDS011;34640;53.590;10.054;2024-01-15T09:10:35;14.45;;;1.35;;
48823;SDS011;34640;53.590;10.054;2024-01-15T09:13:08;6.63;;;1.23;;
48823;SDS011;34640;53.590;10.054;2024-01-15T09:15:41;9.35;;;1.00;;
48823;SDS011;34640;53.590;10.054;2024-01-15T09:18:17;14.73;;;1.20;;
48823;SDS011;34640;53.590;10.054;2024-01-15T09:20:50;15.73;;;1.63;;
48823;SDS011;34640;53.590;10.054;2024-01-15T09:23:22;15.90;;;1.50;;
48823;SDS011;34640;53.590;10.054;2024-01-15T09:25:59;12.63;;;1.40;;
48823;SDS011;34640;53.590;10.054;2024-01-15T09:28:32;9.50;;;1.25;;
48823;SDS011;34640;53.590;10.054;2024-01-15T09:31:05;9.65;;;1.55;;
48823;SDS011;34640;53.590;10.054;2024-01-15T09:33:40;7.88;;;1.33;;
48823;SDS011;34640;53.590;10.054;2024-01-15T09:36:13;9.82;;;1.20;;
48823;SDS011;34640;53.590;10.054;2024-01-15T09:38:46;10.95;;;1.70;;
48823;SDS011;34640;53.590;10.054;2024-01-15T09:41:19;11.48;;;1.52;;
48823;SDS011;34640;53.590;10.054;2024-01-15T09:43:52;12.35;;;1.17;;
48823;SDS011;34640;53.590;10.054;2024-01-15T09:46:25;7.22;;;1.38;;
48823;SDS011;34640;53.590;10.054;2024-01-15T09:49:00;10.40;;;1.08;;
48823;SDS011;34640;53.590;10.054;2024-01-15T09:51:33;12.93;;;1.30;;
48823;SDS011;34640;53.590;10.054;2024-01-15T09:54:06;7.18;;;1.15;;
48823;SDS011;34640;53.590;10.054;2024-01-15T09:56:40;8.75;;;1.20;;
48823;SDS011;34640;53.590;10.054;2024-01-15T09:59:14;4.45;;;0.93;;
48823;SDS011;34640;53.590;10.054;2024-01-15T10:01:48;6.53;;;1.23;;
48823;SDS011;34640;53.590;10.054;2024-01-15T10:04:24;5.13;;;1.15;;
48823;SDS011;34640;53.590;10.054;2024-01-15T10:06:57;14.43;;;1.33;;
48823;SDS011;34640;53.590;10.054;2024-01-15T10:09:33;19.30;;;2.53;;
48823;SDS011;34640;53.590;10.054;2024-01-15T10:12:08;9.00;;;1.20;;
48823;SDS011;34640;53.590;10.054;2024-01-15T10:14:42;16.13;;;1.55;;
48823;SDS011;34640;53.590;10.054;2024-01-15T10:17:16;14.98;;;1.45;;
48823;SDS011;34640;53.590;10.054;2024-01-15T10:19:51;12.27;;;1.33;;
48823;SDS011;34640;53.590;10.054;2024-01-15T10:22:24;11.02;;;0.90;;
48823;SDS011;34640;53.590;10.054;2024-01-15T10:24:58;5.75;;;1.38;;
48823;SDS011;34640;53.590;10.054;2024-01-15T10:27:31;9.65;;;0.85;;
48823;SDS011;34640;53.590;10.054;2024-01-15T10:30:05;14.52;;;1.35;;
48823;SDS011;34640;53.590;10.054;2024-01-15T10:32:39;7.30;;;1.00;;
48823;SDS011;34640;53.590;10.054;2024-01-15T10:35:16;7.50;;;1.00;;
48823;SDS011;34640;53.590;10.054;2024-01-15T10:37:49;13.88;;;1.48;;
48823;SDS011;34640;53.590;10.054;2024-01-15T10:40:22;14.75;;;1.50;;
48823;SDS011;34640;53.590;10.054;2024-01-15T10:42:57;11.82;;;1.05;;
48823;SDS011;34640;53.590;10.054;2024-01-15T10:45:30;5.85;;;1.00;;
48823;SDS011;34640;53.590;10.054;2024-01-15T10:48:05;13.27;;;2.00;;
48823;SDS011;34640;53.590;10.054;2024-01-15T10:50:42;9.20;;;1.38;;
48823;SDS011;34640;53.590;10.054;2024-01-15T10:53:16;6.03;;;0.98;;
48823;SDS011;34640;53.590;10.054;2024-01-15T10:55:50;5.15;;;0.70;;
48823;SDS011;34640;53.590;10.054;2024-01-15T10:58:24;6.30;;;1.25;;
48823;SDS011;34640;53.590;10.054;2024-01-15T11:01:03;6.00;;;1.00;;
48823;SDS011;34640;53.590;10.054;2024-01-15T11:03:37;7.18;;;1.25;;
48823;SDS011;34640;53.590;10.054;2024-01-15T11:06:17;9.75;;;1.00;;
48823;SDS011;34640;53.590;10.054;2024-01-15T11:08:51;7.78;;;1.40;;
48823;SDS011;34640;53.590;10.054;2024-01-15T11:11:26;8.45;;;1.00;;
48823;SDS011;34640;53.590;10.054;2024-01-15T11:13:59;3.92;;;0.75;;
48823;SDS011;34640;53.590;10.054;2024-01-15T11:19:34;3.88;;;1.23;;
48823;SDS011;34640;53.590;10.054;2024-01-15T11:22:10;9.65;;;2.63;;
48823;SDS011;34640;53.590;10.054;2024-01-15T11:25:12;5.47;;;1.50;;
48823;SDS011;34640;53.590;10.054;2024-01-15T11:27:47;4.40;;;1.10;;
48823;SDS011;34640;53.590;10.054;2024-01-15T11:30:25;3.85;;;1.00;;
48823;SDS011;34640;53.590;10.054;2024-01-15T11:33:00;5.85;;;0.90;;
48823;SDS011;34640;53.590;10.054;2024-01-15T11:35:48;3.03;;;0.80;;
48823;SDS011;34640;53.590;10.054;2024-01-15T11:38:29;3.05;;;0.90;;
48823;SDS011;34640;53.590;10.054;2024-01-15T11:41:02;4.18;;;1.00;;
48823;SDS011;34640;53.590;10.054;2024-01-15T11:43:46;5.95;;;0.90;;
48823;SDS011;34640;53.590;10.054;2024-01-15T11:46:19;6.18;;;2.05;;
48823;SDS011;34640;53.590;10.054;2024-01-15T11:48:53;5.70;;;1.40;;
48823;SDS011;34640;53.590;10.054;2024-01-15T11:51:36;9.85;;;1.60;;
48823;SDS011;34640;53.590;10.054;2024-01-15T11:54:09;4.03;;;1.27;;
48823;SDS011;34640;53.590;10.054;2024-01-15T11:56:44;5.68;;;0.73;;
48823;SDS011;34640;53.590;10.054;2024-01-15T11:59:18;6.20;;;1.90;;
48823;SDS011;34640;53.590;10.054;2024-01-15T12:01:51;5.82;;;1.10;;
48823;SDS011;34640;53.590;10.054;2024-01-15T12:04:25;13.52;;;1.60;;
48823;SDS011;34640;53.590;10.054;2024-01-15T12:06:58;6.50;;;1.00;;
48823;SDS011;34640;53.590;10.054;2024-01-15T12:09:32;6.53;;;1.83;;
48823;SDS011;34640;53.590;10.054;2024-01-15T12:12:07;9.02;;;1.60;;
48823;SDS011;34640;53.590;10.054;2024-01-15T12:14:43;7.63;;;1.73;;
48823;SDS011;34640;53.590;10.054;2024-01-15T12:17:17;8.80;;;2.25;;
48823;SDS011;34640;53.590;10.054;2024-01-15T12:19:50;9.93;;;2.25;;
48823;SDS011;34640;53.590;10.054;2024-01-15T12:22:23;7.72;;;1.77;;
48823;SDS011;34640;53.590;10.054;2024-01-15T12:24:57;7.10;;;1.40;;
48823;SDS011;34640;53.590;10.054;2024-01-15T12:27:30;5.47;;;1.42;;
48823;SDS011;34640;53.590;10.054;2024-01-15T12:30:04;7.18;;;1.52;;
48823;SDS011;34640;53.590;10.054;2024-01-15T12:32:39;10.35;;;1.70;;
48823;SDS011;34640;53.590;10.054;2024-01-15T12:35:12;7.47;;;1.40;;
48823;SDS011;34640;53.590;10.054;2024-01-15T12:37:47;10.80;;;1.48;;
48823;SDS011;34640;53.590;10.054;2024-01-15T12:40:24;8.38;;;1.10;;
48823;SDS011;34640;53.590;10.054;2024-01-15T12:42:57;10.02;;;1.25;;
48823;SDS011;34640;53.590;10.054;2024-01-15T12:45:30;8.45;;;1.70;;
48823;SDS011;34640;53.590;10.054;2024-01-15T12:48:04;6.82;;;1.50;;
48823;SDS011;34640;53.590;10.054;2024-01-15T12:50:38;6.25;;;1.58;;
48823;SDS011;34640;53.590;10.054;2024-01-15T12:53:10;5.22;;;1.35;;
48823;SDS011;34640;53.590;10.054;2024-01-15T12:55:45;2.40;;;1.10;;
48823;SDS011;34640;53.590;10.054;2024-01-15T12:58:19;7.20;;;1.58;;
48823;SDS011;34640;53.590;10.054;2024-01-15T13:00:51;6.93;;;1.25;;
48823;SDS011;34640;53.590;10.054;2024-01-15T13:03:25;3.80;;;1.02;;
48823;SDS011;34640;53.590;10.054;2024-01-15T13:05:58;4.30;;;1.02;;
48823;SDS011;34640;53.590;10.054;2024-01-15T13:08:32;2.40;;;0.85;;
48823;SDS011;34640;53.590;10.054;2024-01-15T13:11:06;5.72;;;1.08;;
48823;SDS011;34640;53.590;10.054;2024-01-15T13:13:39;2.15;;;1.13;;
48823;SDS011;34640;53.590;10.054;2024-01-15T13:16:12;5.13;;;1.35;;
48823;SDS011;34640;53.590;10.054;2024-01-15T13:18:45;2.28;;;1.02;;
48823;SDS011;34640;53.590;10.054;2024-01-15T13:21:21;4.15;;;1.17;;
48823;SDS011;34640;53.590;10.054;2024-01-15T13:23:55;4.97;;;1.08;;
48823;SDS011;34640;53.590;10.054;2024-01-15T13:26:29;7.75;;;1.17;;
48823;SDS011;34640;53.590;10.054;2024-01-15T13:29:02;4.40;;;1.10;;
48823;SDS011;34640;53.590;10.054;2024-01-15T13:31:36;6.97;;;1.67;;
48823;SDS011;34640;53.590;10.054;2024-01-15T13:34:10;3.30;;;1.25;;
48823;SDS011;34640;53.590;10.054;2024-01-15T13:36:43;3.40;;;1.13;;
48823;SDS011;34640;53.590;10.054;2024-01-15T13:39:16;4.40;;;1.25;;
48823;SDS011;34640;53.590;10.054;2024-01-15T13:41:52;1.98;;;0.90;;
48823;SDS011;34640;53.590;10.054;2024-01-15T13:44:25;3.08;;;1.15;;
48823;SDS011;34640;53.590;10.054;2024-01-15T13:46:59;3.60;;;1.73;;
48823;SDS011;34640;53.590;10.054;2024-01-15T13:49:34;5.65;;;1.77;;
48823;SDS011;34640;53.590;10.054;2024-01-15T13:52:07;7.53;;;2.05;;
48823;SDS011;34640;53.590;10.054;2024-01-15T13:54:40;4.15;;;1.40;;
48823;SDS011;34640;53.590;10.054;2024-01-15T13:57:22;3.80;;;1.30;;
48823;SDS011;34640;53.590;10.054;2024-01-15T13:59:55;4.55;;;1.35;;
48823;SDS011;34640;53.590;10.054;2024-01-15T14:02:27;2.20;;;0.95;;
48823;SDS011;34640;53.590;10.054;2024-01-15T14:05:00;3.22;;;1.20;;
48823;SDS011;34640;53.590;10.054;2024-01-15T14:07:34;4.78;;;1.00;;
48823;SDS011;34640;53.590;10.054;2024-01-15T14:10:07;4.63;;;1.02;;
48823;SDS011;34640;53.590;10.054;2024-01-15T14:12:42;4.05;;;1.77;;
48823;SDS011;34640;53.590;10.054;2024-01-15T14:15:16;6.40;;;1.20;;
48823;SDS011;34640;53.590;10.054;2024-01-15T14:17:50;6.75;;;1.48;;
48823;SDS011;34640;53.590;10.054;2024-01-15T14:20:24;2.85;;;1.13;;
48823;SDS011;34640;53.590;10.054;2024-01-15T14:22:57;3.65;;;1.25;;
48823;SDS011;34640;53.590;10.054;2024-01-15T14:25:29;4.57;;;1.95;;
48823;SDS011;34640;53.590;10.054;2024-01-15T14:28:05;7.68;;;1.13;;
48823;SDS011;34640;53.590;10.054;2024-01-15T14:30:38;2.75;;;1.13;;
48823;SDS011;34640;53.590;10.054;2024-01-15T14:33:11;8.77;;;1.65;;
48823;SDS011;34640;53.590;10.054;2024-01-15T14:35:44;4.35;;;1.10;;
48823;SDS011;34640;53.590;10.054;2024-01-15T14:38:17;3.20;;;1.00;;
48823;SDS011;34640;53.590;10.054;2024-01-15T14:40:50;4.90;;;1.58;;
48823;SDS011;34640;53.590;10.054;2024-01-15T14:43:24;7.57;;;1.08;;
48823;SDS011;34640;53.590;10.054;2024-01-15T14:45:57;2.83;;;1.10;;
48823;SDS011;34640;53.590;10.054;2024-01-15T14:48:30;3.40;;;1.25;;
48823;SDS011;34640;53.590;10.054;2024-01-15T14:51:04;5.00;;;1.35;;
48823;SDS011;34640;53.590;10.054;2024-01-15T14:53:37;4.28;;;1.70;;
48823;SDS011;34640;53.590;10.054;2024-01-15T14:56:10;7.85;;;1.63;;
48823;SDS011;34640;53.590;10.054;2024-01-15T14:58:50;10.05;;;1.85;;
48823;SDS011;34640;53.590;10.054;2024-01-15T15:01:22;9.05;;;2.88;;
48823;SDS011;34640;53.590;10.054;2024-01-15T15:03:56;7.30;;;2.38;;
48823;SDS011;34640;53.590;10.054;2024-01-15T15:06:29;10.43;;;2.92;;
48823;SDS011;34640;53.590;10.054;2024-01-15T15:09:03;5.80;;;2.20;;